Time;durP1;ratioP1;P1;durP2;ratioP2;P2;SDS_P1;SDS_P2;PMS_P1;PMS_P2;Temp;Humidity;BMP_temperature;BMP_pressure;BME280_temperature;BME280_humidity;BME280_pressure;Samples;Min_cycle;Max_cycle;Signal;HPM_P1;HPM_P2
2022/06/24 12:02:44;;;;;;;4.93;1.30;;;;;;;;;;4942274;28;20138;-85
2022/06/24 12:05:11;;;;;;;6.05;0.90;;;;;;;;;;4942231;28;20048;-82
2022/06/24 12:07:38;;;;;;;8.15;1.10;;;;;;;;;;4935101;28;20110;-83
2022/06/24 12:10:06;;;;;;;8.25;1.10;;;;;;;;;;4941178;28;20051;-82
2022/06/24 12:12:31;;;;;;;7.13;1.00;;;;;;;;;;4939702;28;20047;-83
2022/06/24 12:14:57;;;;;;;6.78;0.98;;;;;;;;;;4941308;28;20490;-84
2022/06/24 12:17:23;;;;;;;4.00;0.90;;;;;;;;;;4944245;28;20058;-84
2022/06/24 12:20:02;;;;;;;5.82;1.00;;;;;;;;;;4925514;29;20601;-85
2022/06/24 12:22:28;;;;;;;5.90;0.90;;;;;;;;;;4937010;28;20066;-85
2022/06/24 12:25:06;;;;;;;7.55;1.00;;;;;;;;;;4939744;28;20226;-83
2022/06/24 12:27:39;;;;;;;3.90;0.60;;;;;;;;;;4944142;28;20050;-82
2022/06/24 12:30:18;;;;;;;4.65;0.88;;;;;;;;;;4938589;28;26050;-83
2022/06/24 12:32:57;;;;;;;3.80;0.80;;;;;;;;;;4938834;28;20154;-82
2022/06/24 12:35:35;;;;;;;5.38;0.95;;;;;;;;;;4947808;28;20047;-84
2022/06/24 12:38:03;;;;;;;4.68;1.02;;;;;;;;;;4946972;28;20039;-81
2022/06/24 12:40:29;;;;;;;5.18;0.85;;;;;;;;;;4942225;28;20051;-80
2022/06/24 12:43:07;;;;;;;4.13;0.77;;;;;;;;;;4946222;28;20057;-83
2022/06/24 12:45:36;;;;;;;;;;;;;;;;;;4945116;28;20043;-84
2022/06/24 12:51:22;;;;;;;5.85;1.20;;;;;;;;;;4939806;29;20055;-83
2022/06/24 12:53:52;;;;;;;2.58;0.85;;;;;;;;;;4926567;28;20138;-83
2022/06/24 12:56:18;;;;;;;4.20;0.80;;;;;;;;;;4944147;28;20070;-83
2022/06/24 12:58:44;;;;;;;2.10;0.30;;;;;;;;;;4923874;29;20059;-83
2022/06/24 13:01:09;;;;;;;5.13;0.60;;;;;;;;;;4939995;28;20048;-82
2022/06/24 13:03:35;;;;;;;2.80;0.63;;;;;;;;;;4938737;28;20043;-84
2022/06/24 13:06:00;;;;;;;4.97;0.73;;;;;;;;;;4944158;28;20223;-82
2022/06/24 13:08:25;;;;;;;4.32;0.60;;;;;;;;;;4938699;28;20130;-83
2022/06/24 13:10:51;;;;;;;3.92;0.70;;;;;;;;;;4939778;28;20142;-84
2022/06/24 13:13:16;;;;;;;4.28;0.50;;;;;;;;;;4940189;28;20142;-85
2022/06/24 13:15:42;;;;;;;4.38;0.50;;;;;;;;;;4941012;28;20035;-84
2022/06/24 13:18:07;;;;;;;4.05;0.55;;;;;;;;;;4943425;28;20047;-85
2022/06/24 13:20:33;;;;;;;4.13;0.57;;;;;;;;;;4938200;28;20106;-85
2022/06/24 13:22:58;;;;;;;2.78;0.47;;;;;;;;;;4917375;29;20043;-84
2022/06/24 13:25:24;;;;;;;4.68;0.57;;;;;;;;;;4932350;28;20051;-85
2022/06/24 13:27:50;;;;;;;2.92;0.50;;;;;;;;;;4914127;28;20047;-86
2022/06/24 13:30:15;;;;;;;3.58;0.60;;;;;;;;;;4940792;28;20053;-85
2022/06/24 13:32:41;;;;;;;5.93;0.80;;;;;;;;;;4937843;28;20082;-84
2022/06/24 13:35:07;;;;;;;2.83;0.52;;;;;;;;;;4945486;28;20526;-85
2022/06/24 13:37:32;;;;;;;2.28;0.43;;;;;;;;;;4941844;28;20538;-83
2022/06/24 13:39:57;;;;;;;3.72;0.57;;;;;;;;;;4939116;28;20043;-84
2022/06/24 13:42:23;;;;;;;0.73;0.30;;;;;;;;;;4938451;28;20039;-85
2022/06/24 13:44:49;;;;;;;1.58;0.40;;;;;;;;;;4938029;28;20035;-83
2022/06/24 13:47:15;;;;;;;3.05;0.68;;;;;;;;;;4946432;28;20086;-83
2022/06/24 13:49:40;;;;;;;3.22;0.50;;;;;;;;;;4949592;28;20408;-83
2022/06/24 13:52:06;;;;;;;1.85;0.60;;;;;;;;;;4948228;28;20201;-82
2022/06/24 13:54:31;;;;;;;2.15;0.65;;;;;;;;;;4951951;28;20043;-82
2022/06/24 13:56:56;;;;;;;1.75;0.50;;;;;;;;;;4952065;28;20915;-81
2022/06/24 13:59:22;;;;;;;1.15;0.30;;;;;;;;;;4952951;28;20074;-82
2022/06/24 14:01:47;;;;;;;1.27;0.20;;;;;;;;;;4953538;28;20468;-83
2022/06/24 14:04:13;;;;;;;2.63;0.40;;;;;;;;;;4949606;28;20115;-82
2022/06/24 14:06:38;;;;;;;1.77;0.35;;;;;;;;;;4949447;28;20050;-82
2022/06/24 14:09:04;;;;;;;3.10;0.50;;;;;;;;;;4950966;28;20415;-80
2022/06/24 14:11:30;;;;;;;1.63;0.52;;;;;;;;;;4951818;29;20500;-82
2022/06/24 14:13:56;;;;;;;1.23;0.40;;;;;;;;;;4950278;28;20532;-83
2022/06/24 14:16:21;;;;;;;2.45;0.65;;;;;;;;;;4950385;28;20058;-81
2022/06/24 14:18:47;;;;;;;0.65;0.30;;;;;;;;;;4950497;28;20138;-81
2022/06/24 14:21:12;;;;;;;1.33;0.30;;;;;;;;;;4933044;29;20123;-81
2022/06/24 14:26:22;;;;;;;2.85;0.80;;;;;;;;;;4952347;29;20039;-81
2022/06/24 14:28:47;;;;;;;3.45;1.30;;;;;;;;;;4950349;28;20043;-82
2022/06/24 14:31:13;;;;;;;5.78;1.30;;;;;;;;;;4949423;28;20393;-82
2022/06/24 14:33:38;;;;;;;10.30;2.50;;;;;;;;;;4950424;28;20067;-83
2022/06/24 14:36:04;;;;;;;6.95;1.65;;;;;;;;;;4953360;28;20047;-80
2022/06/24 14:41:13;;;;;;;5.07;1.90;;;;;;;;;;4949494;28;20126;-83
2022/06/24 14:43:39;;;;;;;9.05;2.03;;;;;;;;;;4949355;28;20126;-83
2022/06/24 14:46:04;;;;;;;11.50;2.30;;;;;;;;;;4948746;28;20201;-82
2022/06/24 14:48:30;;;;;;;7.97;2.97;;;;;;;;;;4949883;28;20126;-82
2022/06/24 14:50:55;;;;;;;8.18;2.35;;;;;;;;;;4951673;28;20054;-83
2022/06/24 14:53:21;;;;;;;9.63;2.58;;;;;;;;;;4950441;28;20043;-83
2022/06/24 14:55:46;;;;;;;9.48;2.75;;;;;;;;;;4949188;28;20044;-83
2022/06/24 14:58:12;;;;;;;8.05;2.45;;;;;;;;;;4950301;28;20035;-83
2022/06/24 15:00:38;;;;;;;7.72;1.60;;;;;;;;;;4949156;28;20047;-84
2022/06/24 15:03:05;;;;;;;3.80;1.00;;;;;;;;;;4950890;28;20069;-82
2022/06/24 15:05:30;;;;;;;5.07;1.48;;;;;;;;;;4951569;29;20051;-81
2022/06/24 15:07:56;;;;;;;6.47;1.98;;;;;;;;;;4950370;28;20700;-84
2022/06/24 15:10:21;;;;;;;14.10;2.97;;;;;;;;;;4944169;28;20059;-81
2022/06/24 15:12:47;;;;;;;12.95;3.97;;;;;;;;;;4947953;28;20090;-82
2022/06/24 15:15:12;;;;;;;14.30;4.45;;;;;;;;;;4946594;28;20044;-82
2022/06/24 15:17:38;;;;;;;14.05;4.63;;;;;;;;;;4950015;29;20062;-82
2022/06/24 15:20:05;;;;;;;30.50;5.20;;;;;;;;;;4948360;28;20601;-82
2022/06/24 15:22:30;;;;;;;17.73;5.22;;;;;;;;;;4931290;29;20047;-83
2022/06/24 15:24:56;;;;;;;16.45;4.55;;;;;;;;;;4949601;28;20500;-81
2022/06/24 15:27:22;;;;;;;22.35;5.25;;;;;;;;;;4952358;28;20047;-84
2022/06/24 15:29:47;;;;;;;20.98;3.70;;;;;;;;;;4952132;29;20039;-84
2022/06/24 15:32:13;;;;;;;17.55;3.58;;;;;;;;;;4956063;28;20121;-80
2022/06/24 15:34:39;;;;;;;15.45;3.28;;;;;;;;;;4958317;28;20496;-82
2022/06/24 15:37:05;;;;;;;19.95;3.53;;;;;;;;;;4954207;28;20043;-81
2022/06/24 15:39:30;;;;;;;12.73;2.90;;;;;;;;;;4962012;28;20050;-81
2022/06/24 15:41:56;;;;;;;14.93;3.10;;;;;;;;;;4961123;28;20161;-82
2022/06/24 15:44:21;;;;;;;13.15;2.72;;;;;;;;;;4955774;28;20377;-83
2022/06/24 15:46:47;;;;;;;20.67;2.97;;;;;;;;;;4951885;28;20047;-81
2022/06/24 15:49:12;;;;;;;17.77;2.67;;;;;;;;;;4950558;28;20035;-81
2022/06/24 15:51:38;;;;;;;16.95;2.45;;;;;;;;;;4960345;28;20067;-82
2022/06/24 15:54:04;;;;;;;15.27;2.03;;;;;;;;;;4934586;28;20519;-81
2022/06/24 15:56:30;;;;;;;22.20;2.88;;;;;;;;;;4931278;29;20043;-84
2022/06/24 15:58:55;;;;;;;16.23;2.38;;;;;;;;;;4953900;28;20034;-81
2022/06/24 16:01:21;;;;;;;22.08;2.85;;;;;;;;;;4928807;28;20453;-82
